createdAt,value
2024-05-09T00:00:39.216Z,62.60
2024-05-09T00:03:08.993Z,62.80
2024-05-09T00:05:37.410Z,62.80
2024-05-09T00:08:04.870Z,62.80
2024-05-09T00:10:36.715Z,62.90
2024-05-09T00:13:07.014Z,63.60
2024-05-09T00:15:34.907Z,63.00
2024-05-09T00:18:03.017Z,63.00
2024-05-09T00:20:37.537Z,63.00
2024-05-09T00:23:12.333Z,63.20
2024-05-09T00:25:42.443Z,63.00
2024-05-09T00:28:09.674Z,63.20
2024-05-09T00:30:37.441Z,63.30
2024-05-09T00:33:06.686Z,63.30
2024-05-09T00:35:35.341Z,63.40
2024-05-09T00:38:02.437Z,63.50
2024-05-09T00:40:39.673Z,63.60
2024-05-09T00:43:10.699Z,63.90
2024-05-09T00:45:37.788Z,63.70
2024-05-09T00:48:07.494Z,63.80
2024-05-09T00:50:38.783Z,63.80
2024-05-09T00:53:07.934Z,63.90
2024-05-09T00:55:36.456Z,64.00
2024-05-09T00:58:05.685Z,64.10
2024-05-09T01:00:38.873Z,64.00
2024-05-09T01:03:12.889Z,63.90
2024-05-09T01:05:41.954Z,63.90
2024-05-09T01:08:10.512Z,63.90
2024-05-09T01:10:37.987Z,64.10
2024-05-09T01:13:05.686Z,64.10
2024-05-09T01:15:33.863Z,63.90
2024-05-09T01:18:12.542Z,64.00
2024-05-09T01:20:43.415Z,65.00
2024-05-09T01:23:13.994Z,63.90
2024-05-09T01:25:43.329Z,64.00
2024-05-09T01:28:10.826Z,64.00
2024-05-09T01:30:38.564Z,64.00
2024-05-09T01:33:08.076Z,64.10
2024-05-09T01:35:36.990Z,64.00
2024-05-09T01:38:04.407Z,64.10
2024-05-09T01:43:02.306Z,64.10
2024-05-09T01:45:29.135Z,64.10
2024-05-09T01:47:56.233Z,64.10
2024-05-09T01:50:35.645Z,64.20
2024-05-09T01:53:06.048Z,64.30
2024-05-09T01:55:32.951Z,64.20
2024-05-09T01:57:59.805Z,64.20
2024-05-09T02:00:36.287Z,64.30
2024-05-09T02:03:13.945Z,64.40
2024-05-09T02:05:44.502Z,64.50
2024-05-09T02:08:17.781Z,64.30
2024-05-09T02:10:46.334Z,64.50
2024-05-09T02:13:14.479Z,64.40
2024-05-09T02:15:41.523Z,64.50
2024-05-09T02:18:09.015Z,64.50
2024-05-09T02:20:38.855Z,64.60
2024-05-09T02:23:06.612Z,64.80
2024-05-09T02:25:34.081Z,65.00
2024-05-09T02:28:01.192Z,65.30
2024-05-09T02:32:58.178Z,65.50
2024-05-09T02:35:26.697Z,65.50
2024-05-09T02:37:53.652Z,65.60
2024-05-09T02:40:28.405Z,65.40
2024-05-09T02:43:01.104Z,65.40
2024-05-09T02:45:27.937Z,65.20
2024-05-09T02:47:55.105Z,65.90
2024-05-09T02:50:29.900Z,65.20
2024-05-09T02:53:04.005Z,65.70
2024-05-09T02:55:31.061Z,65.00
2024-05-09T02:57:57.962Z,64.90
2024-05-09T03:00:34.207Z,65.10
2024-05-09T03:03:07.608Z,65.20
2024-05-09T03:05:35.268Z,65.10
2024-05-09T03:08:02.314Z,65.10
2024-05-09T03:10:35.313Z,65.20
2024-05-09T03:13:08.378Z,65.10
2024-05-09T03:15:35.601Z,65.40
2024-05-09T03:18:03.358Z,65.20
2024-05-09T03:20:34.629Z,65.10
2024-05-09T03:23:03.948Z,65.10
2024-05-09T03:25:31.195Z,65.20
2024-05-09T03:27:58.055Z,65.10
2024-05-09T03:30:36.637Z,65.20
2024-05-09T03:33:13.844Z,65.10
2024-05-09T03:35:42.441Z,65.30
2024-05-09T03:38:09.948Z,65.20
2024-05-09T03:40:43.844Z,65.20
2024-05-09T03:43:10.678Z,65.30
2024-05-09T03:45:37.498Z,65.30
2024-05-09T03:48:04.689Z,65.30
2024-05-09T03:50:35.542Z,65.40
2024-05-09T03:53:03.728Z,65.40
2024-05-09T03:55:31.108Z,65.30
2024-05-09T03:57:58.159Z,65.30
2024-05-09T04:00:31.583Z,65.50
2024-05-09T04:03:06.688Z,65.50
2024-05-09T04:05:35.532Z,65.60
2024-05-09T04:08:02.675Z,65.60
2024-05-09T04:10:33.578Z,65.60
2024-05-09T04:13:02.522Z,65.60
2024-05-09T04:15:29.713Z,65.60
2024-05-09T04:17:56.831Z,65.70
2024-05-09T04:20:33.562Z,65.80
2024-05-09T04:23:06.852Z,65.80
2024-05-09T04:25:34.241Z,65.80
2024-05-09T04:28:01.339Z,65.80
2024-05-09T04:30:36.567Z,65.90
2024-05-09T04:33:08.132Z,66.10
2024-05-09T04:35:36.958Z,66.10
2024-05-09T04:38:05.094Z,66.20
2024-05-09T04:40:35.377Z,66.30
2024-05-09T04:43:05.131Z,66.40
2024-05-09T04:45:32.372Z,66.50
2024-05-09T04:47:59.547Z,66.80
2024-05-09T04:50:35.531Z,67.10
2024-05-09T04:53:09.984Z,67.30
2024-05-09T04:55:38.893Z,67.40
2024-05-09T04:58:09.111Z,67.40
2024-05-09T05:00:38.745Z,67.70
2024-05-09T05:03:10.116Z,67.70
2024-05-09T05:05:42.505Z,67.90
2024-05-09T05:08:14.174Z,68.00
2024-05-09T05:10:42.178Z,68.60
2024-05-09T05:13:17.686Z,68.30
2024-05-09T05:15:49.862Z,68.50
2024-05-09T05:18:17.696Z,68.70
2024-05-09T05:20:44.870Z,68.50
2024-05-09T05:23:14.158Z,68.70
2024-05-09T05:25:42.123Z,68.90
2024-05-09T05:28:09.127Z,69.00
2024-05-09T05:30:37.813Z,69.30
2024-05-09T05:33:06.982Z,69.70
2024-05-09T05:35:34.928Z,70.00
2024-05-09T05:38:06.573Z,70.30
2024-05-09T05:40:37.156Z,70.50
2024-05-09T05:43:05.965Z,70.40
2024-05-09T05:45:33.162Z,70.70
2024-05-09T05:48:02.736Z,71.00
2024-05-09T05:50:35.708Z,71.20
2024-05-09T05:53:06.728Z,71.40
2024-05-09T05:55:34.010Z,71.60
2024-05-09T05:58:02.168Z,71.70
2024-05-09T06:00:35.392Z,71.80
2024-05-09T06:03:06.165Z,72.50
2024-05-09T06:05:33.572Z,71.90
2024-05-09T06:08:00.971Z,72.00
2024-05-09T06:10:37.252Z,72.00
2024-05-09T06:13:06.783Z,72.10
2024-05-09T06:15:33.723Z,72.10
2024-05-09T06:18:00.922Z,72.30
2024-05-09T06:20:35.442Z,72.40
2024-05-09T06:23:09.185Z,72.50
2024-05-09T06:25:36.885Z,73.30
2024-05-09T06:28:04.181Z,72.80
2024-05-09T06:30:38.679Z,72.90
2024-05-09T06:33:10.630Z,73.10
2024-05-09T06:35:39.375Z,73.20
2024-05-09T06:38:09.191Z,73.10
2024-05-09T06:40:39.900Z,73.00
2024-05-09T06:43:17.073Z,73.00
2024-05-09T06:45:47.641Z,73.40
2024-05-09T06:48:19.165Z,72.90
2024-05-09T06:50:46.936Z,73.00
2024-05-09T06:53:14.786Z,73.10
2024-05-09T06:55:42.069Z,73.00
2024-05-09T06:58:09.539Z,73.00
2024-05-09T07:00:39.785Z,72.90
2024-05-09T07:03:14.731Z,72.80
2024-05-09T07:05:44.087Z,73.20
2024-05-09T07:08:11.443Z,73.10
2024-05-09T07:10:38.627Z,73.20
2024-05-09T07:13:13.489Z,73.40
2024-05-09T07:15:41.551Z,73.90
2024-05-09T07:18:13.092Z,73.40
2024-05-09T07:20:40.957Z,73.70
2024-05-09T07:23:11.939Z,73.30
2024-05-09T07:25:40.316Z,73.70
2024-05-09T07:28:17.264Z,73.60
2024-05-09T07:30:45.030Z,74.10
2024-05-09T07:33:20.255Z,73.80
2024-05-09T07:35:48.702Z,74.40
2024-05-09T07:38:15.604Z,73.80
2024-05-09T07:40:42.983Z,73.60
2024-05-09T07:43:13.879Z,73.60
2024-05-09T07:45:50.477Z,73.50
2024-05-09T07:52:38.397Z,73.10
2024-05-09T07:53:49.083Z,72.70
2024-05-09T07:56:21.725Z,73.20
2024-05-09T07:58:51.346Z,72.60
2024-05-09T08:01:19.012Z,72.60
2024-05-09T08:03:46.139Z,72.60
2024-05-09T08:06:13.292Z,72.60
2024-05-09T08:08:40.189Z,72.50
2024-05-09T08:11:07.125Z,72.30
2024-05-09T08:13:34.062Z,71.90
2024-05-09T08:16:01.168Z,71.70
2024-05-09T08:18:28.390Z,71.20
2024-05-09T08:20:55.578Z,71.30
2024-05-09T08:23:23.655Z,71.00
2024-05-09T08:25:52.902Z,70.90
2024-05-09T08:28:20.454Z,71.30
2024-05-09T08:30:47.674Z,71.40
2024-05-09T08:33:15.247Z,70.90
2024-05-09T08:35:42.348Z,70.80
2024-05-09T08:38:09.496Z,70.80
2024-05-09T08:40:37.853Z,71.20
2024-05-09T08:43:11.568Z,71.20
2024-05-09T08:45:45.302Z,71.60
2024-05-09T08:48:15.449Z,70.80
2024-05-09T08:50:43.804Z,70.20
2024-05-09T08:53:11.537Z,70.20
2024-05-09T08:55:42.043Z,70.20
2024-05-09T08:58:16.831Z,70.30
2024-05-09T09:00:45.401Z,70.20
2024-05-09T09:03:19.219Z,69.70
2024-05-09T09:06:06.461Z,69.50
2024-05-09T09:08:33.336Z,69.60
2024-05-09T09:11:00.641Z,69.10
2024-05-09T09:13:28.087Z,68.90
2024-05-09T09:15:58.694Z,68.20
2024-05-09T09:18:27.227Z,68.00
2024-05-09T09:20:54.485Z,68.60
2024-05-09T09:23:21.578Z,68.50
2024-05-09T09:25:48.444Z,68.00
2024-05-09T09:28:15.834Z,67.90
2024-05-09T09:30:43.322Z,67.60
2024-05-09T09:33:10.813Z,67.20
2024-05-09T09:35:40.165Z,67.70
2024-05-09T09:38:08.195Z,67.40
2024-05-09T09:40:45.020Z,67.10
2024-05-09T09:43:21.277Z,66.40
2024-05-09T09:45:52.630Z,66.20
2024-05-09T09:48:21.947Z,66.90
2024-05-09T09:50:51.372Z,66.80
2024-05-09T09:53:19.026Z,65.80
2024-05-09T09:55:46.833Z,66.10
2024-05-09T09:58:16.542Z,66.00
2024-05-09T10:00:44.012Z,65.30
2024-05-09T10:03:11.163Z,65.40
2024-05-09T10:05:40.476Z,66.70
2024-05-09T10:08:10.472Z,66.40
2024-05-09T10:10:38.264Z,65.60
2024-05-09T10:13:06.714Z,64.80
2024-05-09T10:16:11.232Z,64.60
2024-05-09T10:18:39.899Z,63.90
2024-05-09T10:21:20.146Z,64.20
2024-05-09T10:24:07.383Z,63.90
2024-05-09T10:26:38.864Z,64.10
2024-05-09T10:29:18.965Z,63.50
2024-05-09T10:31:47.370Z,62.60
2024-05-09T10:34:24.106Z,63.10
2024-05-09T10:36:55.567Z,63.70
2024-05-09T10:39:25.704Z,63.00
2024-05-09T10:41:52.667Z,62.40
2024-05-09T10:44:21.767Z,62.40
2024-05-09T10:46:50.319Z,61.80
2024-05-09T10:49:17.501Z,62.40
2024-05-09T10:51:45.230Z,62.50
2024-05-09T10:54:12.145Z,62.60
2024-05-09T10:56:39.071Z,63.10
2024-05-09T10:59:05.975Z,62.60
2024-05-09T11:01:33.029Z,62.00
2024-05-09T11:04:00.322Z,61.30
2024-05-09T11:06:27.517Z,60.40
2024-05-09T11:08:55.974Z,60.00
2024-05-09T11:11:23.004Z,62.10
2024-05-09T11:13:49.936Z,60.60
2024-05-09T11:16:21.296Z,60.60
2024-05-09T11:18:56.309Z,59.00
2024-05-09T11:21:24.395Z,58.10
2024-05-09T11:23:51.596Z,58.00
2024-05-09T11:26:21.332Z,58.00
2024-05-09T11:28:48.273Z,58.60
2024-05-09T11:31:15.283Z,57.80
2024-05-09T11:33:44.706Z,56.90
2024-05-09T11:36:12.046Z,57.00
2024-05-09T11:38:39.140Z,56.00
2024-05-09T11:41:06.744Z,56.40
2024-05-09T11:43:33.772Z,56.70
2024-05-09T11:46:02.682Z,56.10
2024-05-09T11:48:30.053Z,55.10
2024-05-09T11:50:57.263Z,55.50
2024-05-09T11:53:24.189Z,54.60
2024-05-09T11:55:51.067Z,54.30
2024-05-09T11:58:19.232Z,54.20
2024-05-09T12:00:47.189Z,53.40
2024-05-09T12:03:14.664Z,52.90
2024-05-09T12:05:41.847Z,53.40
2024-05-09T12:08:09.412Z,53.70
2024-05-09T12:10:37.134Z,52.60
2024-05-09T12:13:06.270Z,52.50
2024-05-09T12:15:37.874Z,52.00
2024-05-09T12:18:06.785Z,51.80
2024-05-09T12:20:37.871Z,51.30
2024-05-09T12:23:09.387Z,51.00
2024-05-09T12:25:38.179Z,50.30
2024-05-09T12:28:05.783Z,51.00
2024-05-09T12:30:37.549Z,50.90
2024-05-09T12:33:12.377Z,50.10
2024-05-09T12:35:41.090Z,49.70
2024-05-09T12:38:09.179Z,49.50
2024-05-09T12:40:38.541Z,50.00
2024-05-09T12:43:08.176Z,49.70
2024-05-09T12:45:36.274Z,48.60
2024-05-09T12:48:04.595Z,47.90
2024-05-09T12:50:33.829Z,48.40
2024-05-09T12:53:02.734Z,47.50
2024-05-09T12:55:37.195Z,46.90
2024-05-09T12:58:11.971Z,46.90
2024-05-09T13:00:39.174Z,46.50
2024-05-09T13:03:06.491Z,45.50
2024-05-09T13:05:33.685Z,46.20
2024-05-09T13:08:01.142Z,45.20
2024-05-09T13:10:32.205Z,44.80
2024-05-09T13:13:01.793Z,44.90
2024-05-09T13:15:31.452Z,44.40
2024-05-09T13:18:01.680Z,43.60
2024-05-09T13:20:33.662Z,43.70
2024-05-09T13:23:04.355Z,44.40
2024-05-09T13:25:31.775Z,43.70
2024-05-09T13:27:58.749Z,43.70
2024-05-09T13:30:33.779Z,42.90
2024-05-09T13:33:06.952Z,43.50
2024-05-09T13:35:35.645Z,43.30
2024-05-09T13:38:03.462Z,42.50
2024-05-09T13:40:34.404Z,42.30
2024-05-09T13:43:06.506Z,41.70
2024-05-09T13:45:34.237Z,40.70
2024-05-09T13:48:06.442Z,39.90
2024-05-09T13:50:36.099Z,39.40
2024-05-09T13:53:06.508Z,38.50
2024-05-09T13:55:35.083Z,36.90
2024-05-09T13:58:02.504Z,37.00
2024-05-09T14:00:41.980Z,37.00
2024-05-09T14:03:14.997Z,36.20
2024-05-09T14:05:42.983Z,35.60
2024-05-09T14:08:10.179Z,34.60
2024-05-09T14:10:43.360Z,34.50
2024-05-09T14:13:10.760Z,34.30
2024-05-09T14:15:37.848Z,33.20
2024-05-09T14:18:05.235Z,32.00
2024-05-09T14:20:32.765Z,31.70
2024-05-09T14:23:00.918Z,32.70
2024-05-09T14:25:35.086Z,31.50
2024-05-09T14:28:03.952Z,31.00
2024-05-09T14:30:36.645Z,30.40
2024-05-09T14:33:06.391Z,30.40
2024-05-09T14:35:34.220Z,30.10
2024-05-09T14:38:01.435Z,30.70
2024-05-09T14:40:39.497Z,30.30
2024-05-09T14:43:14.749Z,29.90
2024-05-09T14:45:43.142Z,30.00
2024-05-09T14:48:11.472Z,29.80
2024-05-09T14:50:40.207Z,29.90
2024-05-09T14:53:09.085Z,29.70
2024-05-09T14:55:37.987Z,31.20
2024-05-09T14:58:06.995Z,30.50
2024-05-09T15:00:39.185Z,30.70
2024-05-09T15:03:08.578Z,30.30
2024-05-09T15:05:35.652Z,30.80
2024-05-09T15:08:06.838Z,31.10
2024-05-09T15:10:36.212Z,31.10
2024-05-09T15:13:04.672Z,31.50
2024-05-09T15:15:31.838Z,31.50
2024-05-09T15:17:59.258Z,31.90
2024-05-09T15:20:33.281Z,32.50
2024-05-09T15:23:03.254Z,32.60
2024-05-09T15:25:30.551Z,32.60
2024-05-09T15:27:57.617Z,32.30
2024-05-09T15:30:30.750Z,32.60
2024-05-09T15:33:00.748Z,32.70
2024-05-09T15:35:28.030Z,33.10
2024-05-09T15:37:55.346Z,33.80
2024-05-09T15:40:31.372Z,34.90
2024-05-09T15:43:06.153Z,34.80
2024-05-09T15:45:34.414Z,35.40
2024-05-09T15:48:02.590Z,34.90
2024-05-09T15:50:37.022Z,34.80
2024-05-09T15:53:08.138Z,35.70
2024-05-09T15:55:36.024Z,35.80
2024-05-09T15:58:04.073Z,35.80
2024-05-09T16:03:01.573Z,35.60
2024-05-09T16:05:28.701Z,35.60
2024-05-09T16:07:55.791Z,34.90
2024-05-09T16:10:26.140Z,35.20
2024-05-09T16:12:59.427Z,35.40
2024-05-09T16:15:26.397Z,34.90
2024-05-09T16:17:53.865Z,35.10
2024-05-09T16:20:33.292Z,35.60
2024-05-09T16:23:05.429Z,35.10
2024-05-09T16:25:32.307Z,36.40
2024-05-09T16:27:59.382Z,35.80
2024-05-09T16:30:33.721Z,36.50
2024-05-09T16:33:04.413Z,36.20
2024-05-09T16:35:32.054Z,36.50
2024-05-09T16:37:59.012Z,36.50
2024-05-09T16:40:34.485Z,37.00
2024-05-09T16:43:06.531Z,37.70
2024-05-09T16:45:34.022Z,38.40
2024-05-09T16:48:01.895Z,38.30
2024-05-09T16:50:33.369Z,39.80
2024-05-09T16:53:02.925Z,39.90
2024-05-09T16:55:30.065Z,39.00
2024-05-09T16:57:58.013Z,38.40
2024-05-09T17:00:35.818Z,38.90
2024-05-09T17:03:09.731Z,39.50
2024-05-09T17:05:37.483Z,39.60
2024-05-09T17:08:05.301Z,39.80
2024-05-09T17:10:34.378Z,40.40
2024-05-09T17:13:07.212Z,40.50
2024-05-09T17:15:36.652Z,40.70
2024-05-09T17:18:05.156Z,40.60
2024-05-09T17:20:35.376Z,40.80
2024-05-09T17:23:06.221Z,42.00
2024-05-09T17:25:34.153Z,41.70
2024-05-09T17:28:07.137Z,41.00
2024-05-09T17:30:37.557Z,41.80
2024-05-09T17:33:08.233Z,41.50
2024-05-09T17:35:36.791Z,42.40
2024-05-09T17:38:05.094Z,41.80
2024-05-09T17:40:35.776Z,42.00
2024-05-09T17:43:05.704Z,42.10
2024-05-09T17:45:33.664Z,42.80
2024-05-09T17:48:01.532Z,43.70
2024-05-09T17:50:35.186Z,43.50
2024-05-09T17:53:08.221Z,43.50
2024-05-09T17:55:35.640Z,42.90
2024-05-09T17:58:04.390Z,43.00
2024-05-09T18:00:38.371Z,42.80
2024-05-09T18:03:10.568Z,42.70
2024-05-09T18:05:38.196Z,42.20
2024-05-09T18:08:06.731Z,41.40
2024-05-09T18:10:37.885Z,40.90
2024-05-09T18:13:10.784Z,40.60
2024-05-09T18:15:39.280Z,40.70
2024-05-09T18:18:07.108Z,40.20
2024-05-09T18:20:42.060Z,40.00
2024-05-09T18:23:14.656Z,40.20
2024-05-09T18:25:43.149Z,40.40
2024-05-09T18:28:10.225Z,40.80
2024-05-09T18:30:37.757Z,41.30
2024-05-09T18:33:07.408Z,41.30
2024-05-09T18:35:35.983Z,41.90
2024-05-09T18:38:03.602Z,42.30
2024-05-09T18:40:34.657Z,42.70
2024-05-09T18:43:06.134Z,43.20
2024-05-09T18:45:34.738Z,43.90
2024-05-09T18:48:01.975Z,44.10
2024-05-09T18:50:35.460Z,44.70
2024-05-09T18:53:06.552Z,45.20
2024-05-09T18:55:33.688Z,45.90
2024-05-09T18:58:01.000Z,46.50
2024-05-09T19:00:34.535Z,46.50
2024-05-09T19:03:08.076Z,47.00
2024-05-09T19:05:36.444Z,47.20
2024-05-09T19:08:03.760Z,47.50
2024-05-09T19:10:34.470Z,48.60
2024-05-09T19:13:07.276Z,48.40
2024-05-09T19:15:38.605Z,48.80
2024-05-09T19:18:06.580Z,49.10
2024-05-09T19:20:35.575Z,49.50
2024-05-09T19:23:04.552Z,49.90
2024-05-09T19:25:32.092Z,50.20
2024-05-09T19:27:59.839Z,50.40
2024-05-09T19:30:36.411Z,50.80
2024-05-09T19:33:07.935Z,51.10
2024-05-09T19:35:35.078Z,51.30
2024-05-09T19:38:02.467Z,51.70
2024-05-09T19:40:32.258Z,52.00
2024-05-09T19:43:02.475Z,52.20
2024-05-09T19:45:30.234Z,52.60
2024-05-09T19:47:57.634Z,53.20
2024-05-09T19:50:32.474Z,53.60
2024-05-09T19:53:07.545Z,53.90
2024-05-09T19:55:34.997Z,54.30
2024-05-09T19:58:05.134Z,54.50
2024-05-09T20:00:36.735Z,54.80
2024-05-09T20:03:06.417Z,55.10
2024-05-09T20:05:34.085Z,55.20
2024-05-09T20:08:01.177Z,55.30
2024-05-09T20:10:32.524Z,55.70
2024-05-09T20:13:02.455Z,56.00
2024-05-09T20:15:29.946Z,56.20
2024-05-09T20:17:57.090Z,56.40
2024-05-09T20:20:33.010Z,56.40
2024-05-09T20:23:06.190Z,56.70
2024-05-09T20:25:33.251Z,56.70
2024-05-09T20:28:00.394Z,56.70
2024-05-09T20:30:32.161Z,56.90
2024-05-09T20:33:03.611Z,57.10
2024-05-09T20:35:32.451Z,57.20
2024-05-09T20:38:00.849Z,57.30
2024-05-09T20:40:32.725Z,57.50
2024-05-09T20:43:03.433Z,57.80
2024-05-09T20:45:30.348Z,57.80
2024-05-09T20:47:57.331Z,57.90
2024-05-09T20:50:35.392Z,58.00
2024-05-09T20:53:11.520Z,58.20
2024-05-09T20:55:39.701Z,58.10
2024-05-09T20:58:06.625Z,58.20
2024-05-09T21:00:39.905Z,58.30
2024-05-09T21:03:11.279Z,58.40
2024-05-09T21:05:39.087Z,58.40
2024-05-09T21:08:06.881Z,58.70
2024-05-09T21:10:35.851Z,58.90
2024-05-09T21:13:03.766Z,59.20
2024-05-09T21:15:31.795Z,59.20
2024-05-09T21:17:59.111Z,59.30
2024-05-09T21:20:31.256Z,59.30
2024-05-09T21:23:00.240Z,59.60
2024-05-09T21:25:27.320Z,59.60
2024-05-09T21:27:54.527Z,59.70
2024-05-09T21:30:32.103Z,59.70
2024-05-09T21:33:12.558Z,59.80
2024-05-09T21:35:41.530Z,60.00
2024-05-09T21:38:08.457Z,59.80
2024-05-09T21:40:37.176Z,59.90
2024-05-09T21:43:06.376Z,59.90
2024-05-09T21:45:34.309Z,60.10
2024-05-09T21:48:04.024Z,60.10
2024-05-09T21:50:37.164Z,60.40
2024-05-09T21:53:07.725Z,60.30
2024-05-09T21:55:34.872Z,60.40
2024-05-09T21:58:02.056Z,60.50
2024-05-09T22:00:35.798Z,60.40
2024-05-09T22:03:06.040Z,60.50
2024-05-09T22:05:33.362Z,60.60
2024-05-09T22:08:00.857Z,60.60
2024-05-09T22:10:33.738Z,60.70
2024-05-09T22:13:03.262Z,60.70
2024-05-09T22:15:30.373Z,60.80
2024-05-09T22:17:57.722Z,60.90
2024-05-09T22:20:34.254Z,61.00
2024-05-09T22:23:04.995Z,61.00
2024-05-09T22:25:32.685Z,60.90
2024-05-09T22:28:01.357Z,61.00
2024-05-09T22:30:35.750Z,61.00
2024-05-09T22:33:10.778Z,61.10
2024-05-09T22:35:39.356Z,61.10
2024-05-09T22:38:06.382Z,61.10
2024-05-09T22:40:42.911Z,61.20
2024-05-09T22:43:23.944Z,61.30
2024-05-09T22:45:53.739Z,61.50
2024-05-09T22:48:21.235Z,61.20
2024-05-09T22:50:48.512Z,61.30
2024-05-09T22:53:15.514Z,62.10
2024-05-09T22:55:42.587Z,61.40
2024-05-09T22:58:09.665Z,61.50
2024-05-09T23:00:36.870Z,61.60
2024-05-09T23:03:03.931Z,61.70
2024-05-09T23:05:32.296Z,61.80
2024-05-09T23:08:01.500Z,61.90
2024-05-09T23:10:35.535Z,62.10
2024-05-09T23:13:07.932Z,62.00
2024-05-09T23:15:37.468Z,62.00
2024-05-09T23:18:04.926Z,62.10
2024-05-09T23:20:37.449Z,62.00
2024-05-09T23:23:07.444Z,62.00
2024-05-09T23:25:34.709Z,62.00
2024-05-09T23:28:01.881Z,62.10
2024-05-09T23:30:36.541Z,62.10
2024-05-09T23:33:07.067Z,62.20
2024-05-09T23:35:34.141Z,62.20
2024-05-09T23:38:01.090Z,62.30
2024-05-09T23:40:37.584Z,62.40
2024-05-09T23:43:08.435Z,62.40
2024-05-09T23:45:35.840Z,62.40
2024-05-09T23:48:03.590Z,62.40
2024-05-09T23:50:35.107Z,62.50
2024-05-09T23:53:06.366Z,62.50
2024-05-09T23:55:34.120Z,62.80
2024-05-09T23:58:01.139Z,62.60
